sensor_id;sensor_type;location;lat;lon;timestamp;temperature;humidity
13496;DHT22;6820;49.374;8.452;2022-12-07T00:03:16;5.44;99.99
13496;DHT22;6820;49.374;8.452;2022-12-07T00:07:17;5.47;99.99
13496;DHT22;6820;49.374;8.452;2022-12-07T00:11:25;5.47;99.99
13496;DHT22;6820;49.374;8.452;2022-12-07T00:15:27;5.48;99.99
13496;DHT22;6820;49.374;8.452;2022-12-07T00:19:28;5.49;99.99
13496;DHT22;6820;49.374;8.452;2022-12-07T00:23:30;5.48;99.99
13496;DHT22;6820;49.374;8.452;2022-12-07T00:27:31;5.47;99.99
13496;DHT22;6820;49.374;8.452;2022-12-07T00:31:34;5.47;99.99
13496;DHT22;6820;49.374;8.452;2022-12-07T00:35:40;5.48;99.99
13496;DHT22;6820;49.374;8.452;2022-12-07T00:39:41;5.48;99.99
13496;DHT22;6820;49.374;8.452;2022-12-07T00:43:43;5.49;99.99
13496;DHT22;6820;49.374;8.452;2022-12-07T00:47:46;5.49;99.99
13496;DHT22;6820;49.374;8.452;2022-12-07T00:51:48;5.48;99.99
13496;DHT22;6820;49.374;8.452;2022-12-07T00:55:50;5.48;99.99
13496;DHT22;6820;49.374;8.452;2022-12-07T00:59:51;5.48;99.99
13496;DHT22;6820;49.374;8.452;2022-12-07T01:03:56;5.44;99.99
13496;DHT22;6820;49.374;8.452;2022-12-07T01:07:58;5.41;99.99
13496;DHT22;6820;49.374;8.452;2022-12-07T01:12:00;5.40;99.99
13496;DHT22;6820;49.374;8.452;2022-12-07T01:16:03;5.41;99.99
13496;DHT22;6820;49.374;8.452;2022-12-07T01:20:06;5.41;99.99
13496;DHT22;6820;49.374;8.452;2022-12-07T01:24:09;5.40;99.99
13496;DHT22;6820;49.374;8.452;2022-12-07T01:28:11;5.41;99.99
13496;DHT22;6820;49.374;8.452;2022-12-07T01:32:13;5.42;99.99
13496;DHT22;6820;49.374;8.452;2022-12-07T01:36:16;5.44;99.99
13496;DHT22;6820;49.374;8.452;2022-12-07T01:40:23;5.45;99.99
13496;DHT22;6820;49.374;8.452;2022-12-07T01:44:30;5.44;99.99
13496;DHT22;6820;49.374;8.452;2022-12-07T01:48:34;5.45;99.99
13496;DHT22;6820;49.374;8.452;2022-12-07T01:52:42;5.44;99.99
13496;DHT22;6820;49.374;8.452;2022-12-07T01:56:50;5.44;99.99
13496;DHT22;6820;49.374;8.452;2022-12-07T02:00:54;5.42;99.99
13496;DHT22;6820;49.374;8.452;2022-12-07T02:04:56;5.40;99.99
13496;DHT22;6820;49.374;8.452;2022-12-07T02:08:59;5.38;99.99
13496;DHT22;6820;49.374;8.452;2022-12-07T02:13:02;5.37;99.99
13496;DHT22;6820;49.374;8.452;2022-12-07T02:22:04;5.32;99.99
13496;DHT22;6820;49.374;8.452;2022-12-07T02:30:43;5.29;99.99
13496;DHT22;6820;49.374;8.452;2022-12-07T02:34:49;5.29;99.99
13496;DHT22;6820;49.374;8.452;2022-12-07T02:39:04;5.27;99.99
13496;DHT22;6820;49.374;8.452;2022-12-07T02:43:12;5.26;99.99
13496;DHT22;6820;49.374;8.452;2022-12-07T02:47:18;5.17;99.99
13496;DHT22;6820;49.374;8.452;2022-12-07T02:51:22;5.06;99.99
13496;DHT22;6820;49.374;8.452;2022-12-07T02:55:26;5.04;99.99
13496;DHT22;6820;49.374;8.452;2022-12-07T03:04:11;5.05;99.99
13496;DHT22;6820;49.374;8.452;2022-12-07T03:12:53;5.05;99.99
13496;DHT22;6820;49.374;8.452;2022-12-07T03:17:20;5.04;99.99
13496;DHT22;6820;49.374;8.452;2022-12-07T03:21:32;5.04;99.99
13496;DHT22;6820;49.374;8.452;2022-12-07T03:25:40;5.06;99.99
13496;DHT22;6820;49.374;8.452;2022-12-07T03:29:47;5.05;99.99
13496;DHT22;6820;49.374;8.452;2022-12-07T03:33:58;5.05;99.99
13496;DHT22;6820;49.374;8.452;2022-12-07T03:38:08;5.06;99.99
13496;DHT22;6820;49.374;8.452;2022-12-07T03:42:16;5.08;99.99
13496;DHT22;6820;49.374;8.452;2022-12-07T03:51:20;5.09;99.99
13496;DHT22;6820;49.374;8.452;2022-12-07T03:55:18;5.11;99.99
13496;DHT22;6820;49.374;8.452;2022-12-07T03:59:26;5.12;99.99
13496;DHT22;6820;49.374;8.452;2022-12-07T04:03:29;5.11;99.99
13496;DHT22;6820;49.374;8.452;2022-12-07T04:07:30;5.08;99.99
13496;DHT22;6820;49.374;8.452;2022-12-07T04:11:32;5.11;99.99
13496;DHT22;6820;49.374;8.452;2022-12-07T04:15:33;5.11;99.99
13496;DHT22;6820;49.374;8.452;2022-12-07T04:19:35;5.14;99.99
13496;DHT22;6820;49.374;8.452;2022-12-07T04:23:37;5.12;99.99
13496;DHT22;6820;49.374;8.452;2022-12-07T04:27:38;5.14;99.99
13496;DHT22;6820;49.374;8.452;2022-12-07T04:31:40;5.15;99.99
13496;DHT22;6820;49.374;8.452;2022-12-07T04:35:42;5.15;99.99
13496;DHT22;6820;49.374;8.452;2022-12-07T04:39:44;5.15;99.99
13496;DHT22;6820;49.374;8.452;2022-12-07T04:43:46;5.17;99.99
13496;DHT22;6820;49.374;8.452;2022-12-07T04:47:47;5.17;99.99
13496;DHT22;6820;49.374;8.452;2022-12-07T04:51:49;5.17;99.99
13496;DHT22;6820;49.374;8.452;2022-12-07T04:55:51;5.14;99.99
13496;DHT22;6820;49.374;8.452;2022-12-07T04:59:52;5.15;99.99
13496;DHT22;6820;49.374;8.452;2022-12-07T05:03:54;5.15;99.99
13496;DHT22;6820;49.374;8.452;2022-12-07T05:07:56;5.15;99.99
13496;DHT22;6820;49.374;8.452;2022-12-07T05:11:57;5.15;99.99
13496;DHT22;6820;49.374;8.452;2022-12-07T05:15:59;5.17;99.99
13496;DHT22;6820;49.374;8.452;2022-12-07T05:20:01;5.14;99.99
13496;DHT22;6820;49.374;8.452;2022-12-07T05:24:03;5.15;99.99
13496;DHT22;6820;49.374;8.452;2022-12-07T05:28:05;5.14;99.99
13496;DHT22;6820;49.374;8.452;2022-12-07T05:32:07;5.15;99.99
13496;DHT22;6820;49.374;8.452;2022-12-07T05:36:09;5.15;99.99
13496;DHT22;6820;49.374;8.452;2022-12-07T05:40:11;5.20;99.99
13496;DHT22;6820;49.374;8.452;2022-12-07T05:44:13;5.20;99.99
13496;DHT22;6820;49.374;8.452;2022-12-07T05:48:16;5.19;99.99
13496;DHT22;6820;49.374;8.452;2022-12-07T05:52:17;5.20;99.99
13496;DHT22;6820;49.374;8.452;2022-12-07T05:56:19;5.14;99.99
13496;DHT22;6820;49.374;8.452;2022-12-07T06:00:21;5.12;99.99
13496;DHT22;6820;49.374;8.452;2022-12-07T06:04:23;5.14;99.99
13496;DHT22;6820;49.374;8.452;2022-12-07T06:08:26;5.11;99.99
13496;DHT22;6820;49.374;8.452;2022-12-07T06:12:28;5.11;99.99
13496;DHT22;6820;49.374;8.452;2022-12-07T06:16:35;5.12;99.99
13496;DHT22;6820;49.374;8.452;2022-12-07T06:20:37;5.11;99.99
13496;DHT22;6820;49.374;8.452;2022-12-07T06:24:39;5.11;99.99
13496;DHT22;6820;49.374;8.452;2022-12-07T06:28:41;5.12;99.99
13496;DHT22;6820;49.374;8.452;2022-12-07T06:32:43;5.06;99.99
13496;DHT22;6820;49.374;8.452;2022-12-07T06:36:44;5.11;99.99
13496;DHT22;6820;49.374;8.452;2022-12-07T06:40:48;5.12;99.99
13496;DHT22;6820;49.374;8.452;2022-12-07T06:44:50;5.17;99.99
13496;DHT22;6820;49.374;8.452;2022-12-07T06:48:51;5.19;99.99
13496;DHT22;6820;49.374;8.452;2022-12-07T06:52:53;5.17;99.99
13496;DHT22;6820;49.374;8.452;2022-12-07T06:56:55;5.17;99.99
13496;DHT22;6820;49.374;8.452;2022-12-07T07:00:56;5.20;99.99
13496;DHT22;6820;49.374;8.452;2022-12-07T07:04:58;5.20;99.99
13496;DHT22;6820;49.374;8.452;2022-12-07T07:08:59;5.22;99.99
13496;DHT22;6820;49.374;8.452;2022-12-07T07:13:01;5.24;99.99
13496;DHT22;6820;49.374;8.452;2022-12-07T07:17:04;5.26;99.99
13496;DHT22;6820;49.374;8.452;2022-12-07T07:21:05;5.27;99.99
13496;DHT22;6820;49.374;8.452;2022-12-07T07:25:07;5.29;99.99
13496;DHT22;6820;49.374;8.452;2022-12-07T07:29:08;5.30;99.99
13496;DHT22;6820;49.374;8.452;2022-12-07T07:33:10;5.32;99.99
13496;DHT22;6820;49.374;8.452;2022-12-07T07:37:12;5.35;99.99
13496;DHT22;6820;49.374;8.452;2022-12-07T07:41:22;5.40;99.99
13496;DHT22;6820;49.374;8.452;2022-12-07T07:45:24;5.41;99.99
13496;DHT22;6820;49.374;8.452;2022-12-07T07:49:27;5.45;99.99
13496;DHT22;6820;49.374;8.452;2022-12-07T07:53:28;5.47;99.99
13496;DHT22;6820;49.374;8.452;2022-12-07T07:57:30;5.49;99.99
13496;DHT22;6820;49.374;8.452;2022-12-07T08:01:31;5.52;99.99
13496;DHT22;6820;49.374;8.452;2022-12-07T08:05:33;5.56;99.99
13496;DHT22;6820;49.374;8.452;2022-12-07T08:09:35;5.60;99.99
13496;DHT22;6820;49.374;8.452;2022-12-07T08:13:36;5.63;99.99
13496;DHT22;6820;49.374;8.452;2022-12-07T08:17:38;5.65;99.99
13496;DHT22;6820;49.374;8.452;2022-12-07T08:21:40;5.69;99.99
13496;DHT22;6820;49.374;8.452;2022-12-07T08:25:41;5.70;99.99
13496;DHT22;6820;49.374;8.452;2022-12-07T08:29:43;5.70;99.99
13496;DHT22;6820;49.374;8.452;2022-12-07T08:33:46;5.73;99.99
13496;DHT22;6820;49.374;8.452;2022-12-07T08:37:48;5.74;99.99
13496;DHT22;6820;49.374;8.452;2022-12-07T08:41:50;5.75;99.99
13496;DHT22;6820;49.374;8.452;2022-12-07T08:46:11;5.81;99.99
13496;DHT22;6820;49.374;8.452;2022-12-07T08:50:18;5.88;99.99
13496;DHT22;6820;49.374;8.452;2022-12-07T08:54:20;5.93;99.99
13496;DHT22;6820;49.374;8.452;2022-12-07T08:58:22;5.96;99.99
13496;DHT22;6820;49.374;8.452;2022-12-07T09:02:24;6.01;99.99
13496;DHT22;6820;49.374;8.452;2022-12-07T09:06:25;6.03;99.99
13496;DHT22;6820;49.374;8.452;2022-12-07T09:10:29;6.10;99.99
13496;DHT22;6820;49.374;8.452;2022-12-07T09:14:30;6.19;99.99
13496;DHT22;6820;49.374;8.452;2022-12-07T09:18:32;6.24;99.99
13496;DHT22;6820;49.374;8.452;2022-12-07T09:22:34;6.32;99.99
13496;DHT22;6820;49.374;8.452;2022-12-07T09:26:36;6.36;99.99
13496;DHT22;6820;49.374;8.452;2022-12-07T09:30:37;6.42;99.99
13496;DHT22;6820;49.374;8.452;2022-12-07T09:34:59;6.42;99.99
13496;DHT22;6820;49.374;8.452;2022-12-07T09:39:01;6.43;99.99
13496;DHT22;6820;49.374;8.452;2022-12-07T09:43:04;6.46;99.99
13496;DHT22;6820;49.374;8.452;2022-12-07T09:47:07;6.43;99.99
13496;DHT22;6820;49.374;8.452;2022-12-07T09:55:24;6.50;99.99
13496;DHT22;6820;49.374;8.452;2022-12-07T09:59:28;6.54;99.99
13496;DHT22;6820;49.374;8.452;2022-12-07T10:03:37;6.58;99.99
13496;DHT22;6820;49.374;8.452;2022-12-07T10:07:40;6.63;99.99
13496;DHT22;6820;49.374;8.452;2022-12-07T10:12:28;6.65;99.99
13496;DHT22;6820;49.374;8.452;2022-12-07T10:16:28;6.78;99.99
13496;DHT22;6820;49.374;8.452;2022-12-07T10:20:36;6.87;99.99
13496;DHT22;6820;49.374;8.452;2022-12-07T10:24:42;6.91;99.99
13496;DHT22;6820;49.374;8.452;2022-12-07T10:28:47;6.91;99.99
13496;DHT22;6820;49.374;8.452;2022-12-07T10:32:49;7.00;99.99
13496;DHT22;6820;49.374;8.452;2022-12-07T10:36:52;7.01;99.99
13496;DHT22;6820;49.374;8.452;2022-12-07T10:41:04;7.05;99.99
13496;DHT22;6820;49.374;8.452;2022-12-07T10:45:14;7.09;99.99
13496;DHT22;6820;49.374;8.452;2022-12-07T10:49:24;7.16;99.99
13496;DHT22;6820;49.374;8.452;2022-12-07T11:02:34;7.29;99.99
13496;DHT22;6820;49.374;8.452;2022-12-07T11:19:34;7.15;99.99
13496;DHT22;6820;49.374;8.452;2022-12-07T11:24:03;7.14;99.99
13496;DHT22;6820;49.374;8.452;2022-12-07T11:37:19;7.15;99.99
13496;DHT22;6820;49.374;8.452;2022-12-07T11:41:33;7.09;99.99
13496;DHT22;6820;49.374;8.452;2022-12-07T11:45:37;7.09;99.99
13496;DHT22;6820;49.374;8.452;2022-12-07T11:49:43;7.11;99.99
13496;DHT22;6820;49.374;8.452;2022-12-07T11:53:52;7.12;99.99
13496;DHT22;6820;49.374;8.452;2022-12-07T11:58:04;7.12;99.99
13496;DHT22;6820;49.374;8.452;2022-12-07T12:02:16;7.12;99.99
13496;DHT22;6820;49.374;8.452;2022-12-07T12:06:24;7.12;99.99
13496;DHT22;6820;49.374;8.452;2022-12-07T12:10:37;7.19;99.99
13496;DHT22;6820;49.374;8.452;2022-12-07T12:19:26;7.14;99.99
13496;DHT22;6820;49.374;8.452;2022-12-07T12:23:41;7.18;99.99
13496;DHT22;6820;49.374;8.452;2022-12-07T12:27:47;7.14;99.99
13496;DHT22;6820;49.374;8.452;2022-12-07T12:48:27;7.29;99.99
13496;DHT22;6820;49.374;8.452;2022-12-07T13:05:33;7.24;99.99
13496;DHT22;6820;49.374;8.452;2022-12-07T13:09:35;7.16;99.99
13496;DHT22;6820;49.374;8.452;2022-12-07T13:13:37;7.16;99.99
13496;DHT22;6820;49.374;8.452;2022-12-07T13:21:41;7.09;99.99
13496;DHT22;6820;49.374;8.452;2022-12-07T13:30:21;7.19;99.99
13496;DHT22;6820;49.374;8.452;2022-12-07T13:34:28;7.24;99.99
13496;DHT22;6820;49.374;8.452;2022-12-07T13:38:31;7.24;99.99
13496;DHT22;6820;49.374;8.452;2022-12-07T13:42:35;7.19;99.99
13496;DHT22;6820;49.374;8.452;2022-12-07T13:46:45;7.21;99.99
13496;DHT22;6820;49.374;8.452;2022-12-07T13:50:55;7.23;99.99
13496;DHT22;6820;49.374;8.452;2022-12-07T13:59:25;7.30;99.99
13496;DHT22;6820;49.374;8.452;2022-12-07T14:03:29;7.29;99.99
13496;DHT22;6820;49.374;8.452;2022-12-07T14:07:33;7.30;99.99
13496;DHT22;6820;49.374;8.452;2022-12-07T14:11:35;7.32;99.99
13496;DHT22;6820;49.374;8.452;2022-12-07T14:15:38;7.30;99.99
13496;DHT22;6820;49.374;8.452;2022-12-07T14:19:41;7.27;99.99
13496;DHT22;6820;49.374;8.452;2022-12-07T14:28:26;7.23;99.99
13496;DHT22;6820;49.374;8.452;2022-12-07T14:32:35;7.21;99.99
13496;DHT22;6820;49.374;8.452;2022-12-07T14:36:38;7.18;99.99
13496;DHT22;6820;49.374;8.452;2022-12-07T14:40:40;7.15;99.99
13496;DHT22;6820;49.374;8.452;2022-12-07T14:44:41;7.09;99.99
13496;DHT22;6820;49.374;8.452;2022-12-07T14:48:44;7.07;99.99
13496;DHT22;6820;49.374;8.452;2022-12-07T14:53:13;7.05;99.99
13496;DHT22;6820;49.374;8.452;2022-12-07T14:57:23;7.04;99.99
13496;DHT22;6820;49.374;8.452;2022-12-07T15:01:25;6.97;99.99
13496;DHT22;6820;49.374;8.452;2022-12-07T15:05:26;6.97;99.99
13496;DHT22;6820;49.374;8.452;2022-12-07T15:09:28;6.93;99.99
13496;DHT22;6820;49.374;8.452;2022-12-07T15:13:30;6.90;99.99
13496;DHT22;6820;49.374;8.452;2022-12-07T15:17:50;6.86;99.99
13496;DHT22;6820;49.374;8.452;2022-12-07T15:21:52;6.82;99.99
13496;DHT22;6820;49.374;8.452;2022-12-07T15:25:54;6.78;99.99
13496;DHT22;6820;49.374;8.452;2022-12-07T15:29:55;6.73;99.99
13496;DHT22;6820;49.374;8.452;2022-12-07T15:33:57;6.72;99.99
13496;DHT22;6820;49.374;8.452;2022-12-07T15:37:59;6.69;99.99
13496;DHT22;6820;49.374;8.452;2022-12-07T15:42:00;6.63;99.99
13496;DHT22;6820;49.374;8.452;2022-12-07T15:46:02;6.58;99.99
13496;DHT22;6820;49.374;8.452;2022-12-07T15:50:04;6.57;99.99
13496;DHT22;6820;49.374;8.452;2022-12-07T15:54:21;6.55;99.99
13496;DHT22;6820;49.374;8.452;2022-12-07T15:58:27;6.50;99.99
13496;DHT22;6820;49.374;8.452;2022-12-07T16:02:28;6.46;99.99
13496;DHT22;6820;49.374;8.452;2022-12-07T16:06:36;6.43;99.99
13496;DHT22;6820;49.374;8.452;2022-12-07T16:10:38;6.40;99.99
13496;DHT22;6820;49.374;8.452;2022-12-07T16:14:43;6.35;99.99
13496;DHT22;6820;49.374;8.452;2022-12-07T16:18:45;6.27;99.99
13496;DHT22;6820;49.374;8.452;2022-12-07T16:22:50;6.25;99.99
13496;DHT22;6820;49.374;8.452;2022-12-07T16:26:53;6.27;99.99
13496;DHT22;6820;49.374;8.452;2022-12-07T16:31:01;6.28;99.99
13496;DHT22;6820;49.374;8.452;2022-12-07T16:35:04;6.30;99.99
13496;DHT22;6820;49.374;8.452;2022-12-07T16:39:06;6.27;99.99
13496;DHT22;6820;49.374;8.452;2022-12-07T16:43:08;6.27;99.99
13496;DHT22;6820;49.374;8.452;2022-12-07T16:47:13;6.25;99.99
13496;DHT22;6820;49.374;8.452;2022-12-07T16:51:15;6.27;99.99
13496;DHT22;6820;49.374;8.452;2022-12-07T16:55:16;6.27;99.99
13496;DHT22;6820;49.374;8.452;2022-12-07T16:59:18;6.24;99.99
13496;DHT22;6820;49.374;8.452;2022-12-07T17:03:19;6.24;99.99
13496;DHT22;6820;49.374;8.452;2022-12-07T17:07:21;6.24;99.99
13496;DHT22;6820;49.374;8.452;2022-12-07T17:11:27;6.21;99.99
13496;DHT22;6820;49.374;8.452;2022-12-07T17:15:32;6.21;99.99
13496;DHT22;6820;49.374;8.452;2022-12-07T17:19:36;6.16;99.99
13496;DHT22;6820;49.374;8.452;2022-12-07T17:23:48;6.13;99.99
13496;DHT22;6820;49.374;8.452;2022-12-07T17:27:50;6.13;99.99
13496;DHT22;6820;49.374;8.452;2022-12-07T17:31:51;6.11;99.99
13496;DHT22;6820;49.374;8.452;2022-12-07T17:35:53;6.11;99.99
13496;DHT22;6820;49.374;8.452;2022-12-07T17:39:55;6.10;99.99
13496;DHT22;6820;49.374;8.452;2022-12-07T17:43:58;6.05;99.99
13496;DHT22;6820;49.374;8.452;2022-12-07T17:48:06;6.02;99.99
13496;DHT22;6820;49.374;8.452;2022-12-07T17:52:08;6.01;99.99
13496;DHT22;6820;49.374;8.452;2022-12-07T17:56:28;5.98;99.99
13496;DHT22;6820;49.374;8.452;2022-12-07T18:00:30;5.98;99.99
13496;DHT22;6820;49.374;8.452;2022-12-07T18:04:37;5.95;99.99
13496;DHT22;6820;49.374;8.452;2022-12-07T18:08:39;5.96;99.99
13496;DHT22;6820;49.374;8.452;2022-12-07T18:12:40;5.88;99.99
13496;DHT22;6820;49.374;8.452;2022-12-07T18:16:45;5.90;99.99
13496;DHT22;6820;49.374;8.452;2022-12-07T18:20:47;5.85;99.99
13496;DHT22;6820;49.374;8.452;2022-12-07T18:24:48;5.87;99.99
13496;DHT22;6820;49.374;8.452;2022-12-07T18:28:50;5.87;99.99
13496;DHT22;6820;49.374;8.452;2022-12-07T18:32:52;5.84;99.99
13496;DHT22;6820;49.374;8.452;2022-12-07T18:36:54;5.81;99.99
13496;DHT22;6820;49.374;8.452;2022-12-07T18:40:55;5.80;99.99
13496;DHT22;6820;49.374;8.452;2022-12-07T18:44:57;5.74;99.99
13496;DHT22;6820;49.374;8.452;2022-12-07T18:48:58;5.73;99.99
13496;DHT22;6820;49.374;8.452;2022-12-07T18:53:04;5.70;99.99
13496;DHT22;6820;49.374;8.452;2022-12-07T18:57:06;5.67;99.99
13496;DHT22;6820;49.374;8.452;2022-12-07T19:01:07;5.66;99.99
13496;DHT22;6820;49.374;8.452;2022-12-07T19:05:09;5.66;99.99
13496;DHT22;6820;49.374;8.452;2022-12-07T19:09:11;5.67;99.99
13496;DHT22;6820;49.374;8.452;2022-12-07T19:13:13;5.65;99.99
13496;DHT22;6820;49.374;8.452;2022-12-07T19:17:15;5.66;99.99
13496;DHT22;6820;49.374;8.452;2022-12-07T19:21:17;5.63;99.99
13496;DHT22;6820;49.374;8.452;2022-12-07T19:25:19;5.63;99.99
13496;DHT22;6820;49.374;8.452;2022-12-07T19:29:20;5.62;99.99
13496;DHT22;6820;49.374;8.452;2022-12-07T19:33:22;5.60;99.99
13496;DHT22;6820;49.374;8.452;2022-12-07T19:37:23;5.59;99.99
13496;DHT22;6820;49.374;8.452;2022-12-07T19:41:25;5.58;99.99
13496;DHT22;6820;49.374;8.452;2022-12-07T19:45:35;5.56;99.99
13496;DHT22;6820;49.374;8.452;2022-12-07T19:49:37;5.55;99.99
13496;DHT22;6820;49.374;8.452;2022-12-07T19:53:39;5.55;99.99
13496;DHT22;6820;49.374;8.452;2022-12-07T19:57:40;5.52;99.99
13496;DHT22;6820;49.374;8.452;2022-12-07T20:01:42;5.49;99.99
13496;DHT22;6820;49.374;8.452;2022-12-07T20:05:44;5.48;99.99
13496;DHT22;6820;49.374;8.452;2022-12-07T20:09:45;5.47;99.99
13496;DHT22;6820;49.374;8.452;2022-12-07T20:13:47;5.47;99.99
13496;DHT22;6820;49.374;8.452;2022-12-07T20:17:48;5.47;99.99
13496;DHT22;6820;49.374;8.452;2022-12-07T20:21:50;5.47;99.99
13496;DHT22;6820;49.374;8.452;2022-12-07T20:25:52;5.47;99.99
13496;DHT22;6820;49.374;8.452;2022-12-07T20:29:53;5.48;99.99
13496;DHT22;6820;49.374;8.452;2022-12-07T20:33:56;5.47;99.99
13496;DHT22;6820;49.374;8.452;2022-12-07T20:38:00;5.49;99.99
13496;DHT22;6820;49.374;8.452;2022-12-07T20:42:01;5.49;99.99
13496;DHT22;6820;49.374;8.452;2022-12-07T20:46:22;5.47;99.99
13496;DHT22;6820;49.374;8.452;2022-12-07T20:50:24;5.44;99.99
13496;DHT22;6820;49.374;8.452;2022-12-07T20:54:25;5.40;99.99
13496;DHT22;6820;49.374;8.452;2022-12-07T20:58:27;5.40;99.99
13496;DHT22;6820;49.374;8.452;2022-12-07T21:02:29;5.37;99.99
13496;DHT22;6820;49.374;8.452;2022-12-07T21:06:30;5.33;99.99
13496;DHT22;6820;49.374;8.452;2022-12-07T21:10:32;5.32;99.99
13496;DHT22;6820;49.374;8.452;2022-12-07T21:14:34;5.30;99.99
13496;DHT22;6820;49.374;8.452;2022-12-07T21:18:35;5.29;99.99
13496;DHT22;6820;49.374;8.452;2022-12-07T21:22:38;5.27;99.99
13496;DHT22;6820;49.374;8.452;2022-12-07T21:26:40;5.27;99.99
13496;DHT22;6820;49.374;8.452;2022-12-07T21:30:41;5.24;99.99
13496;DHT22;6820;49.374;8.452;2022-12-07T21:35:03;5.26;99.99
13496;DHT22;6820;49.374;8.452;2022-12-07T21:39:05;5.26;99.99
13496;DHT22;6820;49.374;8.452;2022-12-07T21:43:07;5.23;99.99
13496;DHT22;6820;49.374;8.452;2022-12-07T21:47:09;5.22;99.99
13496;DHT22;6820;49.374;8.452;2022-12-07T21:51:11;5.20;99.99
13496;DHT22;6820;49.374;8.452;2022-12-07T21:55:14;5.15;99.99
13496;DHT22;6820;49.374;8.452;2022-12-07T21:59:15;5.15;99.99
13496;DHT22;6820;49.374;8.452;2022-12-07T22:03:21;5.14;99.99
13496;DHT22;6820;49.374;8.452;2022-12-07T22:07:23;5.14;99.99
13496;DHT22;6820;49.374;8.452;2022-12-07T22:11:24;5.11;99.99
13496;DHT22;6820;49.374;8.452;2022-12-07T22:15:26;5.14;99.99
13496;DHT22;6820;49.374;8.452;2022-12-07T22:19:28;5.19;99.99
13496;DHT22;6820;49.374;8.452;2022-12-07T22:23:31;5.17;99.99
13496;DHT22;6820;49.374;8.452;2022-12-07T22:27:32;5.20;99.99
13496;DHT22;6820;49.374;8.452;2022-12-07T22:31:34;5.19;99.99
13496;DHT22;6820;49.374;8.452;2022-12-07T22:35:38;5.22;99.99
13496;DHT22;6820;49.374;8.452;2022-12-07T22:39:40;5.23;99.99
13496;DHT22;6820;49.374;8.452;2022-12-07T22:43:41;5.20;99.99
13496;DHT22;6820;49.374;8.452;2022-12-07T22:47:43;5.20;99.99
13496;DHT22;6820;49.374;8.452;2022-12-07T22:51:44;5.20;99.99
13496;DHT22;6820;49.374;8.452;2022-12-07T22:55:46;5.20;99.99
13496;DHT22;6820;49.374;8.452;2022-12-07T22:59:48;5.19;99.99
13496;DHT22;6820;49.374;8.452;2022-12-07T23:03:49;5.19;99.99
13496;DHT22;6820;49.374;8.452;2022-12-07T23:07:52;5.12;99.99
13496;DHT22;6820;49.374;8.452;2022-12-07T23:11:53;5.14;99.99
13496;DHT22;6820;49.374;8.452;2022-12-07T23:16:13;5.17;99.99
13496;DHT22;6820;49.374;8.452;2022-12-07T23:20:15;5.15;99.99
13496;DHT22;6820;49.374;8.452;2022-12-07T23:24:17;5.15;99.99
13496;DHT22;6820;49.374;8.452;2022-12-07T23:28:19;5.11;99.99
13496;DHT22;6820;49.374;8.452;2022-12-07T23:32:20;5.09;99.99
13496;DHT22;6820;49.374;8.452;2022-12-07T23:36:23;5.08;99.99
13496;DHT22;6820;49.374;8.452;2022-12-07T23:40:26;5.06;99.99
13496;DHT22;6820;49.374;8.452;2022-12-07T23:44:27;5.05;99.99
13496;DHT22;6820;49.374;8.452;2022-12-07T23:48:29;5.02;99.99
13496;DHT22;6820;49.374;8.452;2022-12-07T23:52:30;5.05;99.99
13496;DHT22;6820;49.374;8.452;2022-12-07T23:56:32;5.05;99.99
